Geneva, Texas
Current Conditions -  °F | °C
As of 1:56 AM on Monday 22 Dec 2014 (Local Time) from KAQV Reporting Station
Haze Haze  
Wind Chill: 51°   Ceiling: 200
Heat Index: 51°   Visibility: 1.7mi
Dew Point: 49°   Wind: 6mph
Humidity: 92%   Direction: 160°SSE
Pressure: 29.85"   Gusts: NA
Location:  31.48°N, 93.92°W
Report Text: KAQV 220756Z AUTO 16005KT 1 3/4SM BR OVC002 11/09 A2985 RMK AO2 SLP108 T01060094 $
Loading
Personal Weather Stations






























Interactive Weather Map New forecast layout! Learn more

10-Day Weather Forecast

Advertisements
Track Severe Weather on mobile